createdAt,value
2023-04-07T00:02:22.750Z,99058.72
2023-04-07T00:04:51.218Z,99059.75
2023-04-07T00:07:19.443Z,99054.22
2023-04-07T00:09:47.508Z,99060.44
2023-04-07T00:12:16.737Z,99056.09
2023-04-07T00:14:44.800Z,99062.84
2023-04-07T00:17:13.147Z,99053.22
2023-04-07T00:19:44.005Z,99052.34
2023-04-07T00:22:13.089Z,99049.28
2023-04-07T00:24:41.259Z,99047.81
2023-04-07T00:27:09.584Z,99041.84
2023-04-07T00:29:37.737Z,99042.75
2023-04-07T00:32:06.289Z,99042.06
2023-04-07T00:34:34.560Z,99033.09
2023-04-07T00:37:06.473Z,99040.59
2023-04-07T00:39:35.040Z,99035.03
2023-04-07T00:42:05.003Z,99029.84
2023-04-07T00:44:33.145Z,99026.13
2023-04-07T00:47:01.998Z,99029.84
2023-04-07T00:49:30.217Z,99023.66
2023-04-07T00:51:59.665Z,99022.63
2023-04-07T00:54:31.416Z,99017.63
2023-04-07T00:57:00.114Z,99015.84
2023-04-07T00:59:29.486Z,99016.59
2023-04-07T01:02:05.133Z,99012.94
2023-04-07T01:04:36.004Z,99013.59
2023-04-07T01:07:09.244Z,99003.28
2023-04-07T01:09:50.948Z,98995.47
2023-04-07T01:12:28.228Z,98995.34
2023-04-07T01:15:02.002Z,99002.97
2023-04-07T01:17:31.239Z,98996.00
2023-04-07T01:20:03.617Z,98990.66
2023-04-07T01:22:41.708Z,98996.88
2023-04-07T01:25:30.656Z,98993.94
2023-04-07T01:28:25.576Z,99000.50
2023-04-07T01:30:58.212Z,98992.81
2023-04-07T01:33:28.838Z,98993.59
2023-04-07T01:36:01.080Z,98990.13
2023-04-07T01:38:30.473Z,98993.00
2023-04-07T01:41:00.269Z,98996.94
2023-04-07T01:43:30.034Z,98999.41
2023-04-07T01:46:00.631Z,98994.31
2023-04-07T01:48:29.602Z,98993.22
2023-04-07T01:50:59.495Z,98985.94
2023-04-07T01:53:28.251Z,98989.66
2023-04-07T01:55:56.710Z,98982.69
2023-04-07T01:58:25.962Z,98983.78
2023-04-07T02:00:54.394Z,98983.03
2023-04-07T02:03:30.132Z,98979.44
2023-04-07T02:06:05.573Z,98980.91
2023-04-07T02:08:35.380Z,98976.34
2023-04-07T02:11:05.211Z,98975.03
2023-04-07T02:13:35.782Z,98972.41
2023-04-07T02:16:04.320Z,98963.78
2023-04-07T02:18:35.103Z,98963.75
2023-04-07T02:21:03.822Z,98965.91
2023-04-07T02:23:32.054Z,98970.47
2023-04-07T02:26:00.541Z,98965.53
2023-04-07T02:28:28.779Z,98968.84
2023-04-07T02:30:56.829Z,98962.81
2023-04-07T02:33:25.205Z,98964.25
2023-04-07T02:35:55.026Z,98968.00
2023-04-07T02:38:24.580Z,98965.97
2023-04-07T02:40:53.014Z,98961.50
2023-04-07T02:43:21.956Z,98958.00
2023-04-07T02:45:50.082Z,98959.00
2023-04-07T02:48:20.195Z,98952.13
2023-04-07T02:50:48.678Z,98957.16
2023-04-07T02:53:18.448Z,98952.56
2023-04-07T02:55:47.692Z,98952.66
2023-04-07T02:58:15.834Z,98951.34
2023-04-07T03:00:44.162Z,98954.84
2023-04-07T03:03:12.783Z,98951.53
2023-04-07T03:05:41.329Z,98960.09
2023-04-07T03:08:10.494Z,98954.06
2023-04-07T03:10:42.443Z,98952.28
2023-04-07T03:13:13.000Z,98948.19
2023-04-07T03:15:41.521Z,98941.38
2023-04-07T03:18:12.801Z,98943.25
2023-04-07T03:20:42.043Z,98940.19
2023-04-07T03:23:10.400Z,98936.41
2023-04-07T03:25:38.844Z,98940.38
2023-04-07T03:28:09.008Z,98950.81
2023-04-07T03:30:37.147Z,98950.13
2023-04-07T03:33:05.992Z,98942.13
2023-04-07T03:35:34.471Z,98942.13
2023-04-07T03:38:02.513Z,98938.41
2023-04-07T03:40:30.816Z,98928.72
2023-04-07T03:42:59.687Z,98937.09
2023-04-07T03:45:29.795Z,98926.06
2023-04-07T03:47:58.251Z,98938.88
2023-04-07T03:50:26.534Z,98931.44
2023-04-07T03:52:56.364Z,98936.50
2023-04-07T03:55:24.618Z,98941.13
2023-04-07T03:57:53.100Z,98934.63
2023-04-07T04:00:23.857Z,98941.78
2023-04-07T04:02:56.097Z,98934.41
2023-04-07T04:05:24.232Z,98942.22
2023-04-07T04:07:53.235Z,98942.91
2023-04-07T04:10:21.940Z,98939.75
2023-04-07T04:12:53.199Z,98939.69
2023-04-07T04:15:21.552Z,98943.47
2023-04-07T04:17:49.958Z,98933.47
2023-04-07T04:20:20.159Z,98935.47
2023-04-07T04:22:48.475Z,98941.41
2023-04-07T04:25:18.049Z,98940.75
2023-04-07T04:27:46.442Z,98932.59
2023-04-07T04:30:14.973Z,98939.63
2023-04-07T04:32:43.368Z,98931.84
2023-04-07T04:35:11.796Z,98938.38
2023-04-07T04:37:41.960Z,98943.75
2023-04-07T04:40:11.816Z,98938.88
2023-04-07T04:42:40.246Z,98936.63
2023-04-07T04:45:10.045Z,98937.09
2023-04-07T04:47:39.505Z,98926.44
2023-04-07T04:50:08.908Z,98938.75
2023-04-07T04:52:38.298Z,98930.00
2023-04-07T04:55:09.812Z,98949.56
2023-04-07T04:57:38.628Z,98948.81
2023-04-07T05:00:08.157Z,98944.00
2023-04-07T05:02:36.624Z,98945.38
2023-04-07T05:05:06.180Z,98946.41
2023-04-07T05:07:34.612Z,98946.00
2023-04-07T05:10:02.993Z,98961.97
2023-04-07T05:12:33.144Z,98953.59
2023-04-07T05:15:01.584Z,98959.06
2023-04-07T05:17:29.868Z,98952.88
2023-04-07T05:19:58.008Z,98951.94
2023-04-07T05:22:26.183Z,98954.44
2023-04-07T05:24:54.342Z,98955.22
2023-04-07T05:27:22.452Z,98958.69
2023-04-07T05:29:51.977Z,98957.22
2023-04-07T05:32:20.817Z,98954.28
2023-04-07T05:34:49.174Z,98951.63
2023-04-07T05:37:17.205Z,98948.31
2023-04-07T05:39:46.040Z,98953.97
2023-04-07T05:42:14.145Z,98948.25
2023-04-07T05:44:42.466Z,98955.13
2023-04-07T05:47:12.313Z,98950.09
2023-04-07T05:49:46.164Z,98946.13
2023-04-07T05:52:14.671Z,98951.47
2023-04-07T05:54:43.089Z,98954.47
2023-04-07T05:57:12.173Z,98957.84
2023-04-07T05:59:40.243Z,98951.72
2023-04-07T06:02:09.180Z,98948.63
2023-04-07T06:04:39.968Z,98958.19
2023-04-07T06:07:08.649Z,98950.47
2023-04-07T06:09:36.953Z,98951.81
2023-04-07T06:12:07.085Z,98949.75
2023-04-07T06:14:35.822Z,98955.78
2023-04-07T06:17:04.882Z,98958.38
2023-04-07T06:19:33.699Z,98958.50
2023-04-07T06:22:03.514Z,98958.00
2023-04-07T06:24:31.641Z,98955.44
2023-04-07T06:26:59.830Z,98962.84
2023-04-07T06:29:28.289Z,98954.63
2023-04-07T06:31:56.440Z,98955.66
2023-04-07T06:34:24.828Z,98958.97
2023-04-07T06:36:53.432Z,98957.19
2023-04-07T06:39:23.364Z,98962.16
2023-04-07T06:41:51.637Z,98962.09
2023-04-07T06:44:19.933Z,98963.88
2023-04-07T06:46:50.588Z,98966.78
2023-04-07T06:49:18.993Z,98961.38
2023-04-07T06:51:47.373Z,98964.00
2023-04-07T06:54:15.762Z,98964.22
2023-04-07T06:56:45.705Z,98971.81
2023-04-07T06:59:14.167Z,98968.44
2023-04-07T07:01:44.008Z,98968.75
2023-04-07T07:04:12.227Z,98972.06
2023-04-07T07:06:40.563Z,98977.00
2023-04-07T07:09:09.478Z,98970.22
2023-04-07T07:11:38.732Z,98970.22
2023-04-07T07:14:08.743Z,98975.66
2023-04-07T07:16:37.358Z,98983.31
2023-04-07T07:19:05.582Z,98983.41
2023-04-07T07:21:34.048Z,98981.03
2023-04-07T07:24:02.479Z,98984.34
2023-04-07T07:26:30.903Z,98985.63
2023-04-07T07:29:00.534Z,98990.22
2023-04-07T07:31:31.453Z,98996.84
2023-04-07T07:33:59.823Z,98993.22
2023-04-07T07:36:28.215Z,98988.31
2023-04-07T07:38:56.840Z,98996.22
2023-04-07T07:41:27.455Z,98990.81
2023-04-07T07:43:56.123Z,98997.66
2023-04-07T07:46:27.523Z,98994.28
2023-04-07T07:48:57.247Z,98999.75
2023-04-07T07:51:25.433Z,98999.19
2023-04-07T07:53:54.297Z,98999.34
2023-04-07T07:56:22.646Z,99000.28
2023-04-07T07:58:51.003Z,99004.44
2023-04-07T08:01:19.863Z,99008.63
2023-04-07T08:03:48.558Z,98998.22
2023-04-07T08:06:19.124Z,99016.84
2023-04-07T08:08:47.435Z,99010.31
2023-04-07T08:11:15.995Z,99016.00
2023-04-07T08:13:46.951Z,99018.91
2023-04-07T08:16:15.613Z,99017.22
2023-04-07T08:18:44.135Z,99025.38
2023-04-07T08:21:13.135Z,99028.59
2023-04-07T08:23:43.332Z,99036.31
2023-04-07T08:26:11.633Z,99030.75
2023-04-07T08:28:40.052Z,99031.59
2023-04-07T08:31:09.044Z,99036.19
2023-04-07T08:33:37.488Z,99041.09
2023-04-07T08:36:06.634Z,99039.59
2023-04-07T08:38:35.076Z,99036.94
2023-04-07T08:41:06.197Z,99036.53
2023-04-07T08:43:37.092Z,99039.59
2023-04-07T08:46:07.725Z,99034.06
2023-04-07T08:48:38.030Z,99046.91
2023-04-07T08:51:08.486Z,99045.22
2023-04-07T08:53:43.439Z,99045.13
2023-04-07T08:56:16.117Z,99049.69
2023-04-07T08:58:45.241Z,99045.22
2023-04-07T09:01:16.324Z,99047.25
2023-04-07T09:03:47.219Z,99049.63
2023-04-07T09:06:17.458Z,99050.22
2023-04-07T09:08:45.657Z,99042.13
2023-04-07T09:11:15.658Z,99055.84
2023-04-07T09:13:44.226Z,99055.53
2023-04-07T09:16:14.259Z,99056.97
2023-04-07T09:18:43.042Z,99065.44
2023-04-07T09:21:12.381Z,99056.97
2023-04-07T09:23:44.018Z,99057.53
2023-04-07T09:26:27.516Z,99059.34
2023-04-07T09:28:57.235Z,99059.34
2023-04-07T09:31:44.710Z,99058.94
2023-04-07T09:34:26.197Z,99067.84
2023-04-07T09:36:56.228Z,99065.81
2023-04-07T09:39:25.305Z,99065.81
2023-04-07T09:41:54.684Z,99062.50
2023-04-07T09:44:23.599Z,99060.13
2023-04-07T09:46:53.627Z,99066.75
2023-04-07T09:49:36.212Z,99063.72
2023-04-07T09:52:09.991Z,99077.81
2023-04-07T09:54:40.094Z,99075.16
2023-04-07T09:57:10.748Z,99071.09
2023-04-07T09:59:41.080Z,99068.91
2023-04-07T10:02:09.975Z,99072.47
2023-04-07T10:04:39.122Z,99067.19
2023-04-07T10:07:07.913Z,99067.78
2023-04-07T10:09:36.402Z,99070.56
2023-04-07T10:12:05.284Z,99073.91
2023-04-07T10:14:39.182Z,99075.00
2023-04-07T10:17:09.840Z,99070.88
2023-04-07T10:19:39.077Z,99071.97
2023-04-07T10:22:10.804Z,99082.06
2023-04-07T10:24:48.424Z,99080.28
2023-04-07T10:27:21.321Z,99080.88
2023-04-07T10:29:53.086Z,99076.06
2023-04-07T10:32:21.593Z,99080.91
2023-04-07T10:35:02.702Z,99086.25
2023-04-07T10:37:31.458Z,99082.63
2023-04-07T10:40:32.225Z,99082.66
2023-04-07T10:43:01.419Z,99084.78
2023-04-07T10:45:56.704Z,99083.31
2023-04-07T10:48:25.294Z,99095.75
2023-04-07T10:51:19.441Z,99089.97
2023-04-07T10:54:21.148Z,99087.22
2023-04-07T10:57:13.321Z,99087.75
2023-04-07T10:59:47.204Z,99094.06
2023-04-07T11:02:37.426Z,99090.69
2023-04-07T11:05:06.863Z,99098.50
2023-04-07T11:07:55.269Z,99093.97
2023-04-07T11:10:24.403Z,99098.09
2023-04-07T11:13:07.860Z,99094.47
2023-04-07T11:15:40.430Z,99094.59
2023-04-07T11:18:17.780Z,99098.38
2023-04-07T11:20:51.114Z,99096.38
2023-04-07T11:23:20.990Z,99096.34
2023-04-07T11:25:51.137Z,99099.69
2023-04-07T11:28:20.576Z,99102.63
2023-04-07T11:31:00.601Z,99101.16
2023-04-07T11:33:35.106Z,99110.00
2023-04-07T11:36:04.545Z,99102.38
2023-04-07T11:38:40.217Z,99109.47
2023-04-07T11:41:13.571Z,99113.75
2023-04-07T11:43:44.893Z,99108.06
2023-04-07T11:46:15.585Z,99111.00
2023-04-07T11:48:47.731Z,99105.47
2023-04-07T11:51:20.660Z,99109.72
2023-04-07T11:53:49.443Z,99106.94
2023-04-07T11:56:19.081Z,99108.97
2023-04-07T11:58:51.138Z,99111.72
2023-04-07T12:01:20.396Z,99109.47
2023-04-07T12:04:02.406Z,99109.63
2023-04-07T12:06:35.503Z,99104.75
2023-04-07T12:09:05.889Z,99106.44
2023-04-07T12:11:37.859Z,99109.06
2023-04-07T12:14:09.830Z,99111.91
2023-04-07T12:16:40.327Z,99108.88
2023-04-07T12:19:10.575Z,99114.84
2023-04-07T12:21:38.833Z,99111.50
2023-04-07T12:24:07.110Z,99119.19
2023-04-07T12:26:35.453Z,99114.50
2023-04-07T12:29:05.517Z,99120.25
2023-04-07T12:31:34.160Z,99119.34
2023-04-07T12:34:02.593Z,99119.25
2023-04-07T12:36:38.218Z,99118.94
2023-04-07T12:39:06.559Z,99114.34
2023-04-07T12:41:35.330Z,99117.16
2023-04-07T12:44:03.586Z,99119.16
2023-04-07T12:46:35.454Z,99126.44
2023-04-07T12:49:03.983Z,99116.69
2023-04-07T12:51:38.531Z,99126.72
2023-04-07T12:54:07.120Z,99119.34
2023-04-07T12:56:39.361Z,99121.13
2023-04-07T12:59:07.622Z,99121.31
2023-04-07T13:01:37.517Z,99119.59
2023-04-07T13:04:06.111Z,99114.72
2023-04-07T13:06:37.866Z,99106.91
2023-04-07T13:09:06.289Z,99118.13
2023-04-07T13:11:34.761Z,99115.16
2023-04-07T13:14:03.043Z,99109.50
2023-04-07T13:16:32.956Z,99110.84
2023-04-07T13:19:02.233Z,99112.72
2023-04-07T13:24:04.586Z,99114.13
2023-04-07T13:26:33.337Z,99103.75
2023-04-07T13:29:01.511Z,99101.88
2023-04-07T13:31:30.641Z,99099.91
2023-04-07T13:33:58.826Z,99092.06
2023-04-07T13:36:28.436Z,99096.06
2023-04-07T13:38:57.108Z,99092.25
2023-04-07T13:41:27.971Z,99087.69
2023-04-07T13:43:56.713Z,99088.00
2023-04-07T13:46:28.338Z,99086.22
2023-04-07T13:48:57.545Z,99092.44
2023-04-07T13:51:26.108Z,99097.22
2023-04-07T13:53:54.395Z,99092.03
2023-04-07T13:56:22.884Z,99097.44
2023-04-07T13:58:52.865Z,99094.88
2023-04-07T14:01:23.817Z,99104.66
2023-04-07T14:03:53.036Z,99101.44
2023-04-07T14:06:25.283Z,99103.47
2023-04-07T14:08:54.272Z,99100.81
2023-04-07T14:11:27.215Z,99102.66
2023-04-07T14:13:57.911Z,99109.50
2023-04-07T14:16:27.844Z,99105.00
2023-04-07T14:18:56.317Z,99112.53
2023-04-07T14:21:24.757Z,99109.94
2023-04-07T14:23:53.426Z,99112.59
2023-04-07T14:26:22.759Z,99120.44
2023-04-07T14:28:52.323Z,99124.25
2023-04-07T14:31:22.218Z,99119.06
2023-04-07T14:33:51.722Z,99120.75
2023-04-07T14:36:20.387Z,99120.41
2023-04-07T14:38:50.730Z,99124.38
2023-04-07T14:41:20.323Z,99127.47
2023-04-07T14:43:53.664Z,99126.72
2023-04-07T14:46:24.017Z,99133.44
2023-04-07T14:48:53.582Z,99135.09
2023-04-07T14:51:22.723Z,99136.06
2023-04-07T14:53:56.141Z,99132.19
2023-04-07T14:56:26.504Z,99131.28
2023-04-07T14:58:54.783Z,99126.72
2023-04-07T15:01:25.037Z,99139.34
2023-04-07T15:03:54.157Z,99129.91
2023-04-07T15:06:23.738Z,99136.06
2023-04-07T15:08:52.131Z,99129.56
2023-04-07T15:11:21.807Z,99140.78
2023-04-07T15:13:50.519Z,99138.34
2023-04-07T15:16:19.114Z,99139.50
2023-04-07T15:18:49.617Z,99141.16
2023-04-07T15:21:18.683Z,99139.38
2023-04-07T15:23:47.516Z,99141.28
2023-04-07T15:26:16.038Z,99147.88
2023-04-07T15:28:44.144Z,99149.31
2023-04-07T15:31:12.343Z,99142.47
2023-04-07T15:33:44.229Z,99143.84
2023-04-07T15:36:14.249Z,99147.97
2023-04-07T15:38:42.386Z,99147.97
2023-04-07T15:41:10.846Z,99145.50
2023-04-07T15:43:38.981Z,99142.41
2023-04-07T15:46:07.209Z,99145.59
2023-04-07T15:48:35.449Z,99144.78
2023-04-07T15:51:03.766Z,99145.25
2023-04-07T15:53:33.517Z,99144.38
2023-04-07T15:56:01.942Z,99141.94
2023-04-07T15:58:30.311Z,99145.72
2023-04-07T16:00:58.630Z,99149.50
2023-04-07T16:03:28.591Z,99148.63
2023-04-07T16:05:56.976Z,99155.25
2023-04-07T16:08:25.113Z,99165.38
2023-04-07T16:10:56.831Z,99155.94
2023-04-07T16:13:26.094Z,99157.03
2023-04-07T16:15:57.537Z,99157.66
2023-04-07T16:18:26.069Z,99158.09
2023-04-07T16:20:54.700Z,99166.41
2023-04-07T16:23:23.674Z,99163.00
2023-04-07T16:25:51.944Z,99169.00
2023-04-07T16:28:21.787Z,99166.88
2023-04-07T16:30:50.225Z,99166.78
2023-04-07T16:33:18.607Z,99170.09
2023-04-07T16:35:46.758Z,99172.06
2023-04-07T16:38:15.093Z,99168.88
2023-04-07T16:41:00.592Z,99177.66
2023-04-07T16:43:30.667Z,99183.41
2023-04-07T16:46:00.379Z,99183.19
2023-04-07T16:48:28.958Z,99188.88
2023-04-07T16:50:57.359Z,99186.53
2023-04-07T16:53:26.117Z,99192.47
2023-04-07T16:55:54.284Z,99185.59
2023-04-07T16:58:22.685Z,99190.03
2023-04-07T17:00:52.743Z,99196.75
2023-04-07T17:03:21.119Z,99197.47
2023-04-07T17:05:49.714Z,99193.69
2023-04-07T17:08:19.362Z,99200.47
2023-04-07T17:10:47.739Z,99205.31
2023-04-07T17:13:18.118Z,99211.53
2023-04-07T17:15:47.275Z,99208.84
2023-04-07T17:18:17.031Z,99217.31
2023-04-07T17:20:45.417Z,99219.31
2023-04-07T17:23:14.365Z,99227.88
2023-04-07T17:25:42.715Z,99223.81
2023-04-07T17:28:11.992Z,99225.84
2023-04-07T17:30:40.345Z,99222.81
2023-04-07T17:33:08.821Z,99229.16
2023-04-07T17:35:38.432Z,99233.03
2023-04-07T17:38:07.537Z,99238.69
2023-04-07T17:40:35.749Z,99236.97
2023-04-07T17:43:04.768Z,99235.34
2023-04-07T17:45:37.169Z,99241.31
2023-04-07T17:48:09.723Z,99242.28
2023-04-07T17:50:40.047Z,99246.38
2023-04-07T17:53:08.417Z,99244.25
2023-04-07T17:55:36.674Z,99247.25
2023-04-07T17:58:04.903Z,99245.44
2023-04-07T18:00:33.387Z,99245.31
2023-04-07T18:03:02.030Z,99243.25
2023-04-07T18:05:31.269Z,99252.38
2023-04-07T18:08:01.553Z,99263.63
2023-04-07T18:10:31.215Z,99267.88
2023-04-07T18:12:59.396Z,99261.59
2023-04-07T18:15:28.846Z,99261.25
2023-04-07T18:17:58.264Z,99272.25
2023-04-07T18:20:26.604Z,99270.66
2023-04-07T18:22:55.776Z,99265.19
2023-04-07T18:25:25.860Z,99269.47
2023-04-07T18:27:54.517Z,99271.94
2023-04-07T18:30:23.263Z,99284.28
2023-04-07T18:32:51.425Z,99280.03
2023-04-07T18:35:19.934Z,99286.78
2023-04-07T18:37:48.357Z,99285.59
2023-04-07T18:40:16.934Z,99299.47
2023-04-07T18:42:47.032Z,99298.78
2023-04-07T18:45:15.165Z,99297.06
2023-04-07T18:47:43.491Z,99304.31
2023-04-07T18:50:12.252Z,99310.63
2023-04-07T18:52:40.440Z,99301.94
2023-04-07T18:55:11.268Z,99317.81
2023-04-07T18:57:40.440Z,99311.19
2023-04-07T19:00:12.698Z,99314.56
2023-04-07T19:02:44.872Z,99316.97
2023-04-07T19:05:13.403Z,99308.50
2023-04-07T19:07:44.243Z,99316.72
2023-04-07T19:10:12.472Z,99314.91
2023-04-07T19:12:40.911Z,99315.63
2023-04-07T19:15:13.063Z,99324.28
2023-04-07T19:17:43.237Z,99332.28
2023-04-07T19:20:12.241Z,99324.94
2023-04-07T19:22:40.525Z,99336.00
2023-04-07T19:25:10.006Z,99334.78
2023-04-07T19:27:39.669Z,99341.69
2023-04-07T19:30:11.695Z,99341.59
2023-04-07T19:32:40.199Z,99349.00
2023-04-07T19:35:10.372Z,99353.16
2023-04-07T19:37:40.417Z,99349.97
2023-04-07T19:40:09.773Z,99352.47
2023-04-07T19:42:39.374Z,99354.41
2023-04-07T19:45:09.435Z,99356.06
2023-04-07T19:47:39.821Z,99359.16
2023-04-07T19:50:12.055Z,99354.78
2023-04-07T19:52:43.758Z,99363.16
2023-04-07T19:55:13.562Z,99359.47
2023-04-07T19:57:41.611Z,99371.72
2023-04-07T20:00:11.894Z,99368.84
2023-04-07T20:02:42.145Z,99370.41
2023-04-07T20:05:11.140Z,99369.75
2023-04-07T20:07:39.723Z,99365.50
2023-04-07T20:10:08.693Z,99375.22
2023-04-07T20:12:37.033Z,99379.47
2023-04-07T20:15:07.335Z,99383.69
2023-04-07T20:17:37.076Z,99374.19
2023-04-07T20:20:08.474Z,99385.75
2023-04-07T20:22:36.658Z,99383.66
2023-04-07T20:25:05.622Z,99384.50
2023-04-07T20:27:34.120Z,99390.94
2023-04-07T20:30:02.951Z,99391.41
2023-04-07T20:32:31.701Z,99391.16
2023-04-07T20:34:59.790Z,99385.03
2023-04-07T20:37:33.554Z,99383.47
2023-04-07T20:40:02.066Z,99388.00
2023-04-07T20:42:30.300Z,99396.00
2023-04-07T20:45:03.780Z,99395.84
2023-04-07T20:47:36.082Z,99398.50
2023-04-07T20:50:07.252Z,99398.16
2023-04-07T20:52:40.240Z,99396.81
2023-04-07T20:55:09.292Z,99395.03
2023-04-07T20:57:38.001Z,99400.25
2023-04-07T21:00:09.437Z,99401.53
2023-04-07T21:02:38.063Z,99406.41
2023-04-07T21:05:06.884Z,99404.56
2023-04-07T21:07:37.062Z,99410.34
2023-04-07T21:10:05.692Z,99406.84
2023-04-07T21:12:34.072Z,99411.63
2023-04-07T21:15:02.790Z,99413.34
2023-04-07T21:17:31.130Z,99413.53
2023-04-07T21:19:59.572Z,99410.03
2023-04-07T21:22:28.418Z,99405.63
2023-04-07T21:24:59.366Z,99412.16
2023-04-07T21:27:27.504Z,99406.06
2023-04-07T21:29:55.703Z,99395.50
2023-04-07T21:32:23.942Z,99408.69
2023-04-07T21:34:54.212Z,99405.34
2023-04-07T21:37:23.199Z,99402.56
2023-04-07T21:39:54.006Z,99401.16
2023-04-07T21:42:23.688Z,99408.13
2023-04-07T21:44:52.169Z,99403.91
2023-04-07T21:47:20.942Z,99407.84
2023-04-07T21:49:49.168Z,99401.72
2023-04-07T21:52:18.014Z,99402.94
2023-04-07T21:54:46.876Z,99416.16
2023-04-07T21:57:15.229Z,99411.81
2023-04-07T21:59:45.023Z,99405.47
2023-04-07T22:02:13.888Z,99405.25
2023-04-07T22:04:42.006Z,99403.47
2023-04-07T22:07:10.362Z,99413.72
2023-04-07T22:09:38.835Z,99415.16
2023-04-07T22:12:06.993Z,99423.38
2023-04-07T22:14:37.082Z,99421.16
2023-04-07T22:17:07.216Z,99417.03
2023-04-07T22:19:35.352Z,99425.44
2023-04-07T22:22:03.510Z,99424.91
2023-04-07T22:24:31.726Z,99423.53
2023-04-07T22:27:00.150Z,99433.72
2023-04-07T22:29:28.478Z,99432.16
2023-04-07T22:31:58.328Z,99429.13
2023-04-07T22:34:27.953Z,99444.94
2023-04-07T22:36:56.411Z,99445.31
2023-04-07T22:39:25.045Z,99445.72
2023-04-07T22:41:53.210Z,99451.22
2023-04-07T22:44:21.691Z,99457.41
2023-04-07T22:46:50.169Z,99459.31
2023-04-07T22:49:20.689Z,99462.81
2023-04-07T22:51:50.900Z,99463.41
2023-04-07T22:54:19.555Z,99462.53
2023-04-07T22:56:47.828Z,99463.06
2023-04-07T22:59:16.104Z,99459.97
2023-04-07T23:01:44.477Z,99464.19
2023-04-07T23:04:12.922Z,99462.81
2023-04-07T23:06:43.624Z,99467.31
2023-04-07T23:09:13.207Z,99466.75
2023-04-07T23:11:42.184Z,99473.25
2023-04-07T23:14:10.282Z,99474.41
2023-04-07T23:16:38.464Z,99476.16
2023-04-07T23:19:06.961Z,99477.66
2023-04-07T23:21:35.316Z,99481.91
2023-04-07T23:24:03.450Z,99487.63
2023-04-07T23:26:33.284Z,99486.28
2023-04-07T23:29:03.004Z,99486.44
2023-04-07T23:31:31.252Z,99488.59
2023-04-07T23:34:00.182Z,99487.06
2023-04-07T23:36:28.737Z,99493.31
2023-04-07T23:38:57.346Z,99491.59
2023-04-07T23:41:25.700Z,99494.09
2023-04-07T23:43:55.938Z,99488.97
2023-04-07T23:46:24.887Z,99487.56
2023-04-07T23:48:53.171Z,99491.53
2023-04-07T23:51:21.613Z,99493.41
2023-04-07T23:53:50.006Z,99496.34
2023-04-07T23:56:18.107Z,99503.00
2023-04-07T23:58:46.940Z,99500.22
